Time,TemperatureF,DewpointF,PressureIn,WindDirection,WindDirectionDegrees,WindSpeedMPH,WindSpeedGustMPH,Humidity,HourlyPrecipIn,Conditions,Clouds,dailyrainin,SoftwareType,DateUTC
2013-01-09 00:05:00,23.8,20.5,30.40,West,272,0.0,0.0,87,0.00,,,0.05,Wunderground v.1.15,2013-01-09 05:05:00,
2013-01-09 00:10:00,23.7,20.4,30.40,West,272,0.0,0.0,87,0.00,,,0.05,Wunderground v.1.15,2013-01-09 05:10:00,
2013-01-09 00:15:00,23.6,20.3,30.40,West,272,0.0,0.0,87,0.00,,,0.05,Wunderground v.1.15,2013-01-09 05:15:00,
2013-01-09 00:20:00,23.5,20.2,30.40,West,272,0.0,0.0,87,0.00,,,0.05,Wunderground v.1.15,2013-01-09 05:20:00,
2013-01-09 00:25:00,23.4,20.4,30.40,West,272,0.0,0.0,88,0.00,,,0.00,Wunderground v.1.15,2013-01-09 05:25:00,
2013-01-09 00:30:00,23.5,20.5,30.40,West,272,0.0,0.0,88,0.00,,,0.00,Wunderground v.1.15,2013-01-09 05:30:00,
2013-01-09 00:40:00,23.6,20.6,30.40,West,272,0.0,0.0,88,0.00,,,0.00,Wunderground v.1.15,2013-01-09 05:40:00,
2013-01-09 00:45:00,23.5,20.2,30.40,West,272,0.0,0.0,87,0.00,,,0.00,Wunderground v.1.15,2013-01-09 05:45:00,
2013-01-09 00:55:00,23.1,19.8,30.41,West,272,0.0,0.0,87,0.00,,,0.00,Wunderground v.1.15,2013-01-09 05:55:00,
2013-01-09 01:00:00,22.9,19.6,30.42,West,272,0.0,0.0,87,0.00,,,0.00,Wunderground v.1.15,2013-01-09 06:00:00,
2013-01-09 01:05:00,22.8,19.5,30.41,West,272,0.0,0.0,87,0.00,,,0.00,Wunderground v.1.15,2013-01-09 06:05:00,
2013-01-09 01:10:00,22.8,19.8,30.42,West,272,0.0,0.0,88,0.00,,,0.00,Wunderground v.1.15,2013-01-09 06:10:00,
2013-01-09 01:15:00,22.8,19.8,30.42,West,272,0.0,0.0,88,0.00,,,0.00,Wunderground v.1.15,2013-01-09 06:15:00,
2013-01-09 01:20:00,22.6,19.6,30.42,West,272,0.0,0.0,88,0.00,,,0.00,Wunderground v.1.15,2013-01-09 06:20:00,
2013-01-09 01:30:00,22.7,19.7,30.42,West,272,0.0,0.0,88,0.00,,,0.00,Wunderground v.1.15,2013-01-09 06:30:00,
2013-01-09 01:40:00,22.8,19.8,30.42,West,272,0.0,0.0,88,0.00,,,0.00,Wunderground v.1.15,2013-01-09 06:40:00,
2013-01-09 01:45:00,22.9,19.9,30.42,West,272,0.0,0.0,88,0.00,,,0.00,Wunderground v.1.15,2013-01-09 06:45:00,
2013-01-09 01:50:00,22.8,19.8,30.42,West,272,0.0,0.0,88,0.00,,,0.00,Wunderground v.1.15,2013-01-09 06:50:00,
2013-01-09 01:55:00,22.6,19.6,30.42,West,272,0.0,0.0,88,0.00,,,0.00,Wunderground v.1.15,2013-01-09 06:55:00,
2013-01-09 02:05:00,22.2,19.2,30.42,West,272,0.0,0.0,88,0.00,,,0.00,Wunderground v.1.15,2013-01-09 07:05:00,
2013-01-09 02:10:00,22.0,19.0,30.42,West,272,0.0,0.0,88,0.00,,,0.00,Wunderground v.1.15,2013-01-09 07:10:00,
2013-01-09 02:15:00,22.0,19.3,30.42,West,272,0.0,0.0,89,0.00,,,0.00,Wunderground v.1.15,2013-01-09 07:15:00,
2013-01-09 02:20:00,22.2,19.7,30.42,West,272,0.0,0.0,90,0.00,,,0.00,Wunderground v.1.15,2013-01-09 07:20:00,
2013-01-09 02:25:00,22.4,19.6,30.42,West,272,0.0,0.0,89,0.00,,,0.00,Wunderground v.1.15,2013-01-09 07:25:00,
2013-01-09 02:30:00,22.6,19.8,30.42,West,272,0.0,0.0,89,0.00,,,0.00,Wunderground v.1.15,2013-01-09 07:30:00,
2013-01-09 02:40:00,22.7,19.9,30.42,West,272,0.0,0.0,89,0.00,,,0.00,Wunderground v.1.15,2013-01-09 07:40:00,
2013-01-09 02:45:00,22.7,19.9,30.42,West,272,0.0,0.0,89,0.00,,,0.00,Wunderground v.1.15,2013-01-09 07:45:00,
2013-01-09 02:50:00,22.9,20.1,30.42,West,272,0.0,0.0,89,0.00,,,0.00,Wunderground v.1.15,2013-01-09 07:50:00,
2013-01-09 03:00:00,22.4,19.4,30.42,West,272,0.0,0.0,88,0.00,,,0.00,Wunderground v.1.15,2013-01-09 08:00:00,
2013-01-09 03:05:00,22.2,19.2,30.42,West,272,0.0,0.0,88,0.00,,,0.00,Wunderground v.1.15,2013-01-09 08:05:00,
2013-01-09 03:10:00,22.2,19.5,30.42,West,272,0.0,0.0,89,0.00,,,0.00,Wunderground v.1.15,2013-01-09 08:10:00,
2013-01-09 03:20:00,22.0,19.3,30.42,West,272,0.0,0.0,89,0.00,,,0.00,Wunderground v.1.15,2013-01-09 08:20:00,
2013-01-09 03:25:00,22.0,19.3,30.42,West,272,0.0,0.0,89,0.00,,,0.00,Wunderground v.1.15,2013-01-09 08:25:00,
2013-01-09 03:30:00,22.0,19.3,30.41,West,272,0.0,0.0,89,0.00,,,0.00,Wunderground v.1.15,2013-01-09 08:30:00,
2013-01-09 03:35:00,22.1,19.6,30.41,West,272,0.0,0.0,90,0.00,,,0.00,Wunderground v.1.15,2013-01-09 08:35:00,
2013-01-09 03:40:00,22.0,19.3,30.41,West,272,0.0,0.0,89,0.00,,,0.00,Wunderground v.1.15,2013-01-09 08:40:00,
2013-01-09 03:45:00,21.9,19.2,30.41,West,272,0.0,0.0,89,0.00,,,0.00,Wunderground v.1.15,2013-01-09 08:45:00,
2013-01-09 03:55:00,21.7,19.0,30.41,West,272,0.0,0.0,89,0.00,,,0.00,Wunderground v.1.15,2013-01-09 08:55:00,
2013-01-09 04:00:00,21.5,18.8,30.41,West,272,0.0,0.0,89,0.00,,,0.00,Wunderground v.1.15,2013-01-09 09:00:00,
2013-01-09 04:10:00,21.3,18.8,30.41,West,272,0.0,0.0,90,0.00,,,0.00,Wunderground v.1.15,2013-01-09 09:10:00,
2013-01-09 04:15:00,21.4,18.9,30.40,West,272,0.0,0.0,90,0.00,,,0.00,Wunderground v.1.15,2013-01-09 09:15:00,
2013-01-09 04:20:00,21.4,18.9,30.40,West,272,0.0,0.0,90,0.00,,,0.00,Wunderground v.1.15,2013-01-09 09:20:00,
2013-01-09 04:25:00,21.4,18.9,30.40,West,272,0.0,0.0,90,0.00,,,0.00,Wunderground v.1.15,2013-01-09 09:25:00,
2013-01-09 04:35:00,21.3,18.6,30.40,West,272,0.0,0.0,89,0.00,,,0.00,Wunderground v.1.15,2013-01-09 09:35:00,
2013-01-09 04:40:00,21.2,18.5,30.40,West,272,0.0,0.0,89,0.00,,,0.00,Wunderground v.1.15,2013-01-09 09:40:00,
2013-01-09 04:45:00,20.9,18.2,30.40,West,272,0.0,0.0,89,0.00,,,0.00,Wunderground v.1.15,2013-01-09 09:45:00,
2013-01-09 04:50:00,20.7,18.0,30.40,West,272,0.0,0.0,89,0.00,,,0.00,Wunderground v.1.15,2013-01-09 09:50:00,
2013-01-09 04:55:00,20.6,17.9,30.40,West,272,0.0,0.0,89,0.00,,,0.00,Wunderground v.1.15,2013-01-09 09:55:00,
2013-01-09 05:00:00,20.6,18.1,30.40,West,272,0.0,0.0,90,0.00,,,0.00,Wunderground v.1.15,2013-01-09 10:00:00,
2013-01-09 05:05:00,20.7,18.2,30.40,West,272,0.0,0.0,90,0.00,,,0.00,Wunderground v.1.15,2013-01-09 10:05:00,
2013-01-09 05:10:00,20.6,18.1,30.40,West,272,0.0,0.0,90,0.00,,,0.00,Wunderground v.1.15,2013-01-09 10:10:00,
2013-01-09 05:15:00,20.5,18.0,30.41,West,272,0.0,0.0,90,0.00,,,0.00,Wunderground v.1.15,2013-01-09 10:15:00,
2013-01-09 05:20:00,20.6,18.1,30.41,West,272,0.0,0.0,90,0.00,,,0.00,Wunderground v.1.15,2013-01-09 10:20:00,
2013-01-09 05:25:00,20.4,17.9,30.40,West,272,0.0,0.0,90,0.00,,,0.00,Wunderground v.1.15,2013-01-09 10:25:00,
2013-01-09 05:30:00,20.0,17.3,30.41,West,272,0.0,0.0,89,0.00,,,0.00,Wunderground v.1.15,2013-01-09 10:30:00,
2013-01-09 05:40:00,20.0,17.8,30.42,West,272,0.0,0.0,91,0.00,,,0.00,Wunderground v.1.15,2013-01-09 10:40:00,
2013-01-09 05:50:00,20.0,17.8,30.42,West,272,0.0,0.0,91,0.00,,,0.00,Wunderground v.1.15,2013-01-09 10:50:00,
2013-01-09 05:55:00,19.9,17.4,30.42,West,272,0.0,0.0,90,0.00,,,0.00,Wunderground v.1.15,2013-01-09 10:55:00,
2013-01-09 06:00:00,19.7,17.2,30.42,West,272,0.0,0.0,90,0.00,,,0.00,Wunderground v.1.15,2013-01-09 11:00:00,
2013-01-09 06:05:00,19.6,17.1,30.42,West,272,0.0,0.0,90,0.00,,,0.00,Wunderground v.1.15,2013-01-09 11:05:00,
2013-01-09 06:10:00,19.5,17.0,30.42,West,272,0.0,0.0,90,0.00,,,0.00,Wunderground v.1.15,2013-01-09 11:10:00,
2013-01-09 06:15:00,19.6,17.1,30.43,West,272,0.0,0.0,90,0.00,,,0.00,Wunderground v.1.15,2013-01-09 11:15:00,
2013-01-09 06:25:00,19.4,16.9,30.43,West,272,0.0,0.0,90,0.00,,,0.00,Wunderground v.1.15,2013-01-09 11:25:00,
2013-01-09 06:30:00,19.4,16.9,30.43,West,272,0.0,0.0,90,0.00,,,0.00,Wunderground v.1.15,2013-01-09 11:30:00,
2013-01-09 06:40:00,19.3,16.8,30.44,West,272,0.0,0.0,90,0.00,,,0.00,Wunderground v.1.15,2013-01-09 11:40:00,
2013-01-09 06:45:00,19.0,16.6,30.44,West,272,0.0,0.0,90,0.00,,,0.00,Wunderground v.1.15,2013-01-09 11:45:00,
2013-01-09 06:50:00,18.9,16.5,30.44,West,272,0.0,0.0,90,0.00,,,0.00,Wunderground v.1.15,2013-01-09 11:50:00,
2013-01-09 06:55:00,18.7,16.3,30.45,West,272,0.0,0.0,90,0.00,,,0.00,Wunderground v.1.15,2013-01-09 11:55:00,
2013-01-09 07:05:00,18.6,16.2,30.45,West,272,0.0,0.0,90,0.00,,,0.00,Wunderground v.1.15,2013-01-09 12:05:00,
2013-01-09 07:10:00,18.6,16.2,30.45,West,272,0.0,0.0,90,0.00,,,0.00,Wunderground v.1.15,2013-01-09 12:10:00,
2013-01-09 07:15:00,18.7,16.3,30.45,West,272,0.0,0.0,90,0.00,,,0.00,Wunderground v.1.15,2013-01-09 12:15:00,
2013-01-09 07:20:00,18.6,16.2,30.45,West,272,0.0,0.0,90,0.00,,,0.00,Wunderground v.1.15,2013-01-09 12:20:00,
2013-01-09 07:25:00,18.5,16.1,30.45,West,272,0.0,0.0,90,0.00,,,0.00,Wunderground v.1.15,2013-01-09 12:25:00,
2013-01-09 07:35:00,18.5,16.1,30.45,West,272,0.0,0.0,90,0.00,,,0.00,Wunderground v.1.15,2013-01-09 12:35:00,
2013-01-09 07:40:00,18.7,16.3,30.45,West,272,0.0,0.0,90,0.00,,,0.00,Wunderground v.1.15,2013-01-09 12:40:00,
2013-01-09 07:45:00,18.7,16.3,30.45,West,272,0.0,0.0,90,0.00,,,0.00,Wunderground v.1.15,2013-01-09 12:45:00,
2013-01-09 07:50:00,18.9,16.5,30.45,West,272,0.0,0.0,90,0.00,,,0.00,Wunderground v.1.15,2013-01-09 12:50:00,
2013-01-09 07:55:00,19.0,16.6,30.45,West,272,0.0,0.0,90,0.00,,,0.00,Wunderground v.1.15,2013-01-09 12:55:00,
2013-01-09 08:00:00,19.4,16.9,30.45,West,272,0.0,0.0,90,0.00,,,0.00,Wunderground v.1.15,2013-01-09 13:00:00,
2013-01-09 08:10:00,19.9,17.4,30.45,West,272,0.0,0.0,90,0.00,,,0.00,Wunderground v.1.15,2013-01-09 13:10:00,
2013-01-09 08:15:00,20.3,17.8,30.44,West,272,0.0,0.0,90,0.00,,,0.00,Wunderground v.1.15,2013-01-09 13:15:00,
2013-01-09 08:20:00,20.7,18.0,30.44,West,272,0.0,0.0,89,0.00,,,0.00,Wunderground v.1.15,2013-01-09 13:20:00,
2013-01-09 08:25:00,20.9,18.2,30.44,West,272,0.0,0.0,89,0.00,,,0.00,Wunderground v.1.15,2013-01-09 13:25:00,
2013-01-09 08:30:00,21.1,18.1,30.44,West,272,0.0,0.0,88,0.00,,,0.00,Wunderground v.1.15,2013-01-09 13:30:00,
2013-01-09 08:35:00,21.3,18.3,30.44,West,272,0.0,0.0,88,0.00,,,0.00,Wunderground v.1.15,2013-01-09 13:35:00,
2013-01-09 08:40:00,21.6,18.3,30.43,West,272,0.0,0.0,87,0.00,,,0.00,Wunderground v.1.15,2013-01-09 13:40:00,
2013-01-09 08:45:00,21.8,18.5,30.44,West,272,0.0,0.0,87,0.00,,,0.00,Wunderground v.1.15,2013-01-09 13:45:00,
2013-01-09 08:50:00,22.4,19.1,30.43,West,272,0.0,0.0,87,0.00,,,0.00,Wunderground v.1.15,2013-01-09 13:50:00,
2013-01-09 08:55:00,23.0,19.7,30.43,West,272,0.0,0.0,87,0.00,,,0.00,Wunderground v.1.15,2013-01-09 13:55:00,
2013-01-09 09:00:00,23.8,20.2,30.43,West,272,0.0,0.0,86,0.00,,,0.00,Wunderground v.1.15,2013-01-09 14:00:00,
2013-01-09 09:10:00,24.8,20.9,30.43,West,272,0.0,0.0,85,0.00,,,0.00,Wunderground v.1.15,2013-01-09 14:10:00,
2013-01-09 09:15:00,25.1,20.9,30.43,West,272,0.0,0.0,84,0.00,,,0.00,Wunderground v.1.15,2013-01-09 14:15:00,
2013-01-09 09:20:00,25.3,20.9,30.42,West,272,0.0,0.0,83,0.00,,,0.00,Wunderground v.1.15,2013-01-09 14:20:00,
2013-01-09 09:30:00,25.4,21.0,30.42,West,272,0.0,0.0,83,0.00,,,0.00,Wunderground v.1.15,2013-01-09 14:30:00,
2013-01-09 09:35:00,26.0,21.5,30.42,West,272,0.0,0.0,83,0.00,,,0.00,Wunderground v.1.15,2013-01-09 14:35:00,
2013-01-09 09:40:00,26.6,22.1,30.42,West,272,0.0,0.0,83,0.00,,,0.00,Wunderground v.1.15,2013-01-09 14:40:00,
2013-01-09 09:45:00,27.2,22.4,30.42,West,272,0.0,0.0,82,0.00,,,0.00,Wunderground v.1.15,2013-01-09 14:45:00,
2013-01-09 09:50:00,27.7,22.6,30.41,West,272,0.0,0.0,81,0.00,,,0.00,Wunderground v.1.15,2013-01-09 14:50:00,
2013-01-09 09:55:00,28.0,22.6,30.41,West,272,0.0,0.0,80,0.00,,,0.00,Wunderground v.1.15,2013-01-09 14:55:00,
2013-01-09 10:05:00,29.3,23.6,30.41,West,272,0.0,0.0,79,0.00,,,0.00,Wunderground v.1.15,2013-01-09 15:05:00,
2013-01-09 10:10:00,30.0,24.0,30.41,West,272,0.0,0.0,78,0.00,,,0.00,Wunderground v.1.15,2013-01-09 15:10:00,
2013-01-09 10:15:00,30.5,24.1,30.40,West,272,0.0,0.0,77,0.00,,,0.00,Wunderground v.1.15,2013-01-09 15:15:00,
2013-01-09 10:20:00,30.9,24.2,30.39,West,272,0.0,0.0,76,0.00,,,0.00,Wunderground v.1.15,2013-01-09 15:20:00,
2013-01-09 10:25:00,31.3,24.6,30.39,West,272,0.0,0.0,76,0.00,,,0.00,Wunderground v.1.15,2013-01-09 15:25:00,
2013-01-09 10:30:00,31.5,24.5,30.38,West,272,0.0,0.0,75,0.00,,,0.00,Wunderground v.1.15,2013-01-09 15:30:00,
2013-01-09 10:40:00,32.0,24.6,30.37,West,272,0.0,0.0,74,0.00,,,0.00,Wunderground v.1.15,2013-01-09 15:40:00,
2013-01-09 10:45:00,32.5,25.5,30.36,West,272,0.0,0.0,75,0.00,,,0.00,Wunderground v.1.15,2013-01-09 15:45:00,
2013-01-09 10:50:00,32.7,25.3,30.36,West,272,0.0,1.0,74,0.00,,,0.00,Wunderground v.1.15,2013-01-09 15:50:00,
2013-01-09 10:55:00,32.5,25.1,30.36,West,272,0.0,1.0,74,0.00,,,0.00,Wunderground v.1.15,2013-01-09 15:55:00,
2013-01-09 11:00:00,32.6,25.2,30.35,West,272,0.0,0.0,74,0.00,,,0.00,Wunderground v.1.15,2013-01-09 16:00:00,
2013-01-09 11:05:00,32.7,25.3,30.35,West,272,0.0,0.0,74,0.00,,,0.00,Wunderground v.1.15,2013-01-09 16:05:00,
2013-01-09 11:10:00,33.2,25.8,30.34,West,272,0.0,1.0,74,0.00,,,0.00,Wunderground v.1.15,2013-01-09 16:10:00,
2013-01-09 11:20:00,33.5,26.1,30.33,NE,55,0.0,0.0,74,0.00,,,0.00,Wunderground v.1.15,2013-01-09 16:20:00,
2013-01-09 11:25:00,33.8,26.1,30.32,NE,55,0.0,0.0,73,0.00,,,0.00,Wunderground v.1.15,2013-01-09 16:25:00,
2013-01-09 11:30:00,34.1,26.3,30.33,NE,55,0.0,0.0,73,0.00,,,0.00,Wunderground v.1.15,2013-01-09 16:30:00,
2013-01-09 11:35:00,34.3,26.2,30.32,NE,55,0.0,0.0,72,0.00,,,0.00,Wunderground v.1.15,2013-01-09 16:35:00,
2013-01-09 11:40:00,34.2,26.1,30.32,NE,55,0.0,0.0,72,0.00,,,0.00,Wunderground v.1.15,2013-01-09 16:40:00,
2013-01-09 11:45:00,34.3,26.5,30.32,NE,55,0.0,0.0,73,0.00,,,0.00,Wunderground v.1.15,2013-01-09 16:45:00,
2013-01-09 11:55:00,34.6,26.8,30.31,NE,55,0.0,0.0,73,0.00,,,0.00,Wunderground v.1.15,2013-01-09 16:55:00,
2013-01-09 12:00:00,34.6,26.5,30.30,NE,55,0.0,0.0,72,0.00,,,0.00,Wunderground v.1.15,2013-01-09 17:00:00,
2013-01-09 12:05:00,34.6,26.5,30.30,NE,55,0.0,0.0,72,0.00,,,0.00,Wunderground v.1.15,2013-01-09 17:05:00,
2013-01-09 12:10:00,35.0,26.9,30.30,NE,55,0.0,0.0,72,0.00,,,0.00,Wunderground v.1.15,2013-01-09 17:10:00,
2013-01-09 12:20:00,35.1,27.0,30.28,NE,55,0.0,0.0,72,0.00,,,0.00,Wunderground v.1.15,2013-01-09 17:20:00,
2013-01-09 12:25:00,35.2,26.7,30.28,NE,55,0.0,0.0,71,0.00,,,0.00,Wunderground v.1.15,2013-01-09 17:25:00,
2013-01-09 12:30:00,35.3,27.2,30.27,NE,55,0.0,0.0,72,0.00,,,0.00,Wunderground v.1.15,2013-01-09 17:30:00,
2013-01-09 12:40:00,35.7,27.6,30.25,NE,55,0.0,0.0,72,0.00,,,0.00,Wunderground v.1.15,2013-01-09 17:40:00,
2013-01-09 12:45:00,35.9,27.4,30.25,NE,55,0.0,0.0,71,0.00,,,0.00,Wunderground v.1.15,2013-01-09 17:45:00,
2013-01-09 12:50:00,36.2,28.0,30.25,NE,55,0.0,0.0,72,0.00,,,0.00,Wunderground v.1.15,2013-01-09 17:50:00,
2013-01-09 12:55:00,36.4,27.9,30.25,NE,55,0.0,0.0,71,0.00,,,0.00,Wunderground v.1.15,2013-01-09 17:55:00,
2013-01-09 13:05:00,36.5,28.0,30.24,NE,55,0.0,0.0,71,0.00,,,0.00,Wunderground v.1.15,2013-01-09 18:05:00,
2013-01-09 13:10:00,36.5,28.0,30.23,NE,55,0.0,0.0,71,0.00,,,0.00,Wunderground v.1.15,2013-01-09 18:10:00,
2013-01-09 13:15:00,36.3,27.8,30.21,ENE,58,0.0,1.0,71,0.00,,,0.00,Wunderground v.1.15,2013-01-09 18:15:00,
2013-01-09 13:20:00,36.2,28.0,30.20,ENE,69,0.0,1.0,72,0.00,,,0.00,Wunderground v.1.15,2013-01-09 18:20:00,
2013-01-09 13:25:00,36.0,27.8,30.20,ENE,69,0.0,1.0,72,0.00,,,0.00,Wunderground v.1.15,2013-01-09 18:25:00,
2013-01-09 13:30:00,36.0,27.8,30.19,ENE,69,0.0,1.0,72,0.00,,,0.00,Wunderground v.1.15,2013-01-09 18:30:00,
2013-01-09 13:40:00,35.6,27.5,30.18,ESE,121,1.0,1.0,72,0.00,,,0.00,Wunderground v.1.15,2013-01-09 18:40:00,
2013-01-09 13:45:00,35.4,27.6,30.18,SE,132,1.0,1.0,73,0.00,,,0.00,Wunderground v.1.15,2013-01-09 18:45:00,
2013-01-09 13:50:00,35.3,27.5,30.18,SE,132,0.0,0.0,73,0.00,,,0.00,Wunderground v.1.15,2013-01-09 18:50:00,
2013-01-09 13:55:00,35.3,27.5,30.18,SE,132,0.0,0.0,73,0.00,,,0.00,Wunderground v.1.15,2013-01-09 18:55:00,
2013-01-09 14:00:00,35.3,27.5,30.18,SE,132,0.0,0.0,73,0.00,,,0.00,Wunderground v.1.15,2013-01-09 19:00:00,
2013-01-09 14:05:00,35.6,27.8,30.18,SE,132,0.0,0.0,73,0.00,,,0.00,Wunderground v.1.15,2013-01-09 19:05:00,
2013-01-09 14:15:00,36.1,28.6,30.18,SE,132,0.0,0.0,74,0.00,,,0.00,Wunderground v.1.15,2013-01-09 19:15:00,
2013-01-09 14:25:00,36.6,29.7,30.20,West,270,1.0,3.0,76,0.00,,,0.00,Wunderground v.1.15,2013-01-09 19:25:00,
2013-01-09 14:30:00,36.9,30.4,30.20,WNW,290,1.0,1.0,77,0.00,,,0.00,Wunderground v.1.15,2013-01-09 19:30:00,
2013-01-09 14:35:00,37.1,30.6,30.20,WSW,255,1.0,4.0,77,0.00,,,0.00,Wunderground v.1.15,2013-01-09 19:35:00,
2013-01-09 14:40:00,37.3,31.1,30.20,West,278,1.0,2.0,78,0.00,,,0.00,Wunderground v.1.15,2013-01-09 19:40:00,
2013-01-09 14:45:00,37.4,31.5,30.20,WNW,289,2.0,2.0,79,0.00,,,0.00,Wunderground v.1.15,2013-01-09 19:45:00,
2013-01-09 14:50:00,37.3,31.4,30.20,WSW,240,3.0,3.0,79,0.00,,,0.00,Wunderground v.1.15,2013-01-09 19:50:00,
2013-01-09 15:00:00,37.1,31.5,30.19,WNW,293,2.0,2.0,80,0.00,,,0.00,Wunderground v.1.15,2013-01-09 20:00:00,
2013-01-09 15:10:00,37.0,31.7,30.18,WSW,251,2.0,2.0,81,0.00,,,0.00,Wunderground v.1.15,2013-01-09 20:10:00,
2013-01-09 15:20:00,36.8,31.5,30.17,West,267,2.0,2.0,81,0.00,,,0.00,Wunderground v.1.15,2013-01-09 20:20:00,
2013-01-09 15:25:00,36.8,31.5,30.16,WSW,254,2.0,2.0,81,0.00,,,0.00,Wunderground v.1.15,2013-01-09 20:25:00,
2013-01-09 15:30:00,36.6,31.3,30.16,WSW,246,2.0,3.0,81,0.00,,,0.00,Wunderground v.1.15,2013-01-09 20:30:00,
2013-01-09 15:40:00,36.4,31.1,30.14,WSW,239,1.0,1.0,81,0.00,,,0.00,Wunderground v.1.15,2013-01-09 20:40:00,
2013-01-09 15:50:00,36.4,31.1,30.12,SSW,203,1.0,2.0,81,0.00,,,0.01,Wunderground v.1.15,2013-01-09 20:50:00,
2013-01-09 15:55:00,36.2,31.2,30.12,SW,217,1.0,2.0,82,0.00,,,0.01,Wunderground v.1.15,2013-01-09 20:55:00,
2013-01-09 16:00:00,36.2,31.5,30.12,WSW,248,1.0,1.0,83,0.00,,,0.01,Wunderground v.1.15,2013-01-09 21:00:00,
2013-01-09 16:05:00,36.2,31.5,30.11,SSW,212,1.0,2.0,83,0.00,,,0.01,Wunderground v.1.15,2013-01-09 21:05:00,
2013-01-09 16:15:00,36.2,31.8,30.11,WSW,257,1.0,4.0,84,0.00,,,0.01,Wunderground v.1.15,2013-01-09 21:15:00,
2013-01-09 16:20:00,36.2,31.8,30.10,WSW,257,1.0,1.0,84,0.00,,,0.01,Wunderground v.1.15,2013-01-09 21:20:00,
2013-01-09 16:25:00,36.3,31.9,30.09,WSW,257,0.0,1.0,84,0.00,,,0.01,Wunderground v.1.15,2013-01-09 21:25:00,
2013-01-09 16:30:00,36.4,32.0,30.09,West,270,0.0,0.0,84,0.00,,,0.01,Wunderground v.1.15,2013-01-09 21:30:00,
2013-01-09 16:40:00,36.4,32.0,30.10,West,270,0.0,1.0,84,0.00,,,0.01,Wunderground v.1.15,2013-01-09 21:40:00,
2013-01-09 16:45:00,36.3,31.9,30.10,WNW,282,1.0,1.0,84,0.00,,,0.01,Wunderground v.1.15,2013-01-09 21:45:00,
2013-01-09 16:55:00,36.2,32.1,30.08,West,261,1.0,1.0,85,0.00,,,0.01,Wunderground v.1.15,2013-01-09 21:55:00,
2013-01-09 17:00:00,36.0,32.2,30.06,West,261,1.0,1.0,86,0.00,,,0.01,Wunderground v.1.15,2013-01-09 22:00:00,
2013-01-09 17:05:00,35.8,32.3,30.04,SW,236,0.0,2.0,87,0.00,,,0.01,Wunderground v.1.15,2013-01-09 22:05:00,
2013-01-09 17:10:00,35.8,32.3,30.03,SSW,206,1.0,4.0,87,0.00,,,0.01,Wunderground v.1.15,2013-01-09 22:10:00,
2013-01-09 17:15:00,36.0,32.8,30.02,SW,224,2.0,4.0,88,0.00,,,0.01,Wunderground v.1.15,2013-01-09 22:15:00,
2013-01-09 17:20:00,36.2,32.7,30.02,SSW,194,1.0,1.0,87,0.00,,,0.01,Wunderground v.1.15,2013-01-09 22:20:00,
2013-01-09 17:30:00,36.6,33.1,30.03,WNW,284,1.0,2.0,87,0.00,,,0.01,Wunderground v.1.15,2013-01-09 22:30:00,
2013-01-09 17:40:00,36.9,33.1,30.02,WNW,300,1.0,1.0,86,0.00,,,0.01,Wunderground v.1.15,2013-01-09 22:40:00,
2013-01-09 17:45:00,36.7,33.2,30.00,WNW,300,0.0,1.0,87,0.00,,,0.01,Wunderground v.1.15,2013-01-09 22:45:00,
2013-01-09 17:50:00,36.5,33.0,30.02,NW,315,1.0,1.0,87,0.00,,,0.01,Wunderground v.1.15,2013-01-09 22:50:00,
2013-01-09 17:55:00,36.6,33.1,30.02,NW,315,1.0,1.0,87,0.00,,,0.01,Wunderground v.1.15,2013-01-09 22:55:00,
2013-01-09 18:05:00,36.6,33.1,30.02,NW,315,0.0,1.0,87,0.00,,,0.01,Wunderground v.1.15,2013-01-09 23:05:00,
2013-01-09 18:10:00,36.5,33.0,30.01,NW,315,0.0,0.0,87,0.00,,,0.01,Wunderground v.1.15,2013-01-09 23:10:00,
2013-01-09 18:15:00,36.2,32.7,30.00,NW,315,0.0,0.0,87,0.00,,,0.01,Wunderground v.1.15,2013-01-09 23:15:00,
2013-01-09 18:20:00,36.1,32.9,30.00,NW,315,0.0,0.0,88,0.00,,,0.01,Wunderground v.1.15,2013-01-09 23:20:00,
2013-01-09 18:25:00,36.1,32.9,30.00,NW,315,0.0,0.0,88,0.00,,,0.01,Wunderground v.1.15,2013-01-09 23:25:00,
2013-01-09 18:30:00,36.1,32.9,30.00,NW,315,0.0,0.0,88,0.00,,,0.01,Wunderground v.1.15,2013-01-09 23:30:00,
2013-01-09 18:40:00,36.3,33.1,29.99,NW,315,0.0,0.0,88,0.00,,,0.01,Wunderground v.1.15,2013-01-09 23:40:00,
2013-01-09 18:45:00,36.3,33.1,29.99,NW,315,0.0,1.0,88,0.00,,,0.01,Wunderground v.1.15,2013-01-09 23:45:00,
2013-01-09 18:50:00,36.4,33.2,29.99,NW,315,0.0,0.0,88,0.00,,,0.01,Wunderground v.1.15,2013-01-09 23:50:00,
2013-01-09 19:00:00,36.2,33.0,29.99,WSW,258,1.0,1.0,88,0.00,,,0.01,Wunderground v.1.15,2013-01-10 00:00:00,
2013-01-09 19:05:00,36.4,33.2,29.98,WSW,253,1.0,3.0,88,0.00,,,0.01,Wunderground v.1.15,2013-01-10 00:05:00,
2013-01-09 19:10:00,36.5,33.3,29.97,WSW,252,2.0,2.0,88,0.00,,,0.01,Wunderground v.1.15,2013-01-10 00:10:00,
2013-01-09 19:20:00,37.3,34.1,29.95,WSW,251,1.0,4.0,88,0.00,,,0.01,Wunderground v.1.15,2013-01-10 00:20:00,
2013-01-09 19:25:00,37.9,34.4,29.95,WSW,253,1.0,4.0,87,0.00,,,0.01,Wunderground v.1.15,2013-01-10 00:25:00,
2013-01-09 19:30:00,38.3,34.5,29.95,WSW,245,1.0,1.0,86,0.00,,,0.01,Wunderground v.1.15,2013-01-10 00:30:00,
2013-01-09 19:35:00,38.7,34.6,29.95,WSW,241,0.0,2.0,85,0.00,,,0.01,Wunderground v.1.15,2013-01-10 00:35:00,
2013-01-09 19:40:00,38.8,34.4,29.95,WSW,253,1.0,2.0,84,0.00,,,0.01,Wunderground v.1.15,2013-01-10 00:40:00,
2013-01-09 19:45:00,38.9,34.5,29.95,WSW,253,1.0,2.0,84,0.00,,,0.01,Wunderground v.1.15,2013-01-10 00:45:00,
2013-01-09 19:55:00,38.8,34.4,29.96,WSW,257,0.0,1.0,84,0.00,,,0.01,Wunderground v.1.15,2013-01-10 00:55:00,
2013-01-09 20:00:00,38.7,34.3,29.96,WNW,296,1.0,2.0,84,0.00,,,0.01,Wunderground v.1.15,2013-01-10 01:00:00,
2013-01-09 20:10:00,37.9,33.5,29.96,WNW,296,1.0,1.0,84,0.00,,,0.01,Wunderground v.1.15,2013-01-10 01:10:00,
2013-01-09 20:15:00,37.6,33.5,29.96,WNW,296,1.0,2.0,85,0.00,,,0.01,Wunderground v.1.15,2013-01-10 01:15:00,
2013-01-09 20:20:00,37.4,33.3,29.96,WNW,296,0.0,0.0,85,0.00,,,0.01,Wunderground v.1.15,2013-01-10 01:20:00,
2013-01-09 20:25:00,37.3,33.2,29.96,WNW,296,0.0,0.0,85,0.00,,,0.01,Wunderground v.1.15,2013-01-10 01:25:00,
2013-01-09 20:35:00,37.0,32.9,29.95,WNW,296,0.0,1.0,85,0.00,,,0.01,Wunderground v.1.15,2013-01-10 01:35:00,
2013-01-09 20:40:00,36.8,32.7,29.94,West,270,0.0,4.0,85,0.00,,,0.01,Wunderground v.1.15,2013-01-10 01:40:00,
2013-01-09 20:45:00,36.6,32.2,29.94,WNW,291,1.0,4.0,84,0.00,,,0.01,Wunderground v.1.15,2013-01-10 01:45:00,
2013-01-09 20:50:00,36.5,32.4,29.94,West,270,1.0,1.0,85,0.00,,,0.01,Wunderground v.1.15,2013-01-10 01:50:00,
2013-01-09 20:55:00,36.6,32.2,29.94,WNW,291,1.0,1.0,84,0.00,,,0.01,Wunderground v.1.15,2013-01-10 01:55:00,
2013-01-09 21:00:00,36.4,32.0,29.93,WNW,301,1.0,3.0,84,0.00,,,0.01,Wunderground v.1.15,2013-01-10 02:00:00,
2013-01-09 21:10:00,35.9,31.5,29.92,West,281,1.0,1.0,84,0.00,,,0.01,Wunderground v.1.15,2013-01-10 02:10:00,
2013-01-09 21:15:00,35.7,31.0,29.92,West,275,1.0,1.0,83,0.00,,,0.01,Wunderground v.1.15,2013-01-10 02:15:00,
2013-01-09 21:20:00,35.5,30.8,29.92,WNW,284,2.0,3.0,83,0.00,,,0.01,Wunderground v.1.15,2013-01-10 02:20:00,
2013-01-09 21:30:00,35.2,30.6,29.92,West,270,2.0,4.0,83,0.00,,,0.01,Wunderground v.1.15,2013-01-10 02:30:00,
2013-01-09 21:35:00,35.0,30.4,29.92,West,275,2.0,4.0,83,0.00,,,0.01,Wunderground v.1.15,2013-01-10 02:35:00,
2013-01-09 21:40:00,34.8,30.2,29.92,WNW,295,2.0,3.0,83,0.00,,,0.01,Wunderground v.1.15,2013-01-10 02:40:00,
2013-01-09 21:50:00,34.8,29.9,29.92,West,281,2.0,3.0,82,0.00,,,0.01,Wunderground v.1.15,2013-01-10 02:50:00,
2013-01-09 21:55:00,34.7,29.8,29.92,NW,305,2.0,3.0,82,0.00,,,0.01,Wunderground v.1.15,2013-01-10 02:55:00,
2013-01-09 22:00:00,34.7,29.8,29.92,NW,310,2.0,2.0,82,0.00,,,0.01,Wunderground v.1.15,2013-01-10 03:00:00,
2013-01-09 22:05:00,34.7,29.5,29.92,NW,310,3.0,3.0,81,0.00,,,0.01,Wunderground v.1.15,2013-01-10 03:05:00,
2013-01-09 22:10:00,34.8,29.6,29.92,WNW,301,3.0,3.0,81,0.00,,,0.01,Wunderground v.1.15,2013-01-10 03:10:00,
2013-01-09 22:15:00,35.0,29.5,29.92,WNW,285,3.0,3.0,80,0.00,,,0.01,Wunderground v.1.15,2013-01-10 03:15:00,
2013-01-09 22:25:00,35.7,29.8,29.93,NW,305,4.0,4.0,79,0.00,,,0.01,Wunderground v.1.15,2013-01-10 03:25:00,
2013-01-09 22:30:00,36.2,30.0,29.93,West,271,4.0,4.0,78,0.00,,,0.01,Wunderground v.1.15,2013-01-10 03:30:00,
2013-01-09 22:40:00,36.6,30.1,29.94,WNW,301,3.0,3.0,77,0.00,,,0.01,Wunderground v.1.15,2013-01-10 03:40:00,
2013-01-09 22:45:00,36.8,30.3,29.93,NNW,327,3.0,3.0,77,0.00,,,0.01,Wunderground v.1.15,2013-01-10 03:45:00,
2013-01-09 22:50:00,36.7,30.2,29.93,NNW,337,3.0,3.0,77,0.00,,,0.01,Wunderground v.1.15,2013-01-10 03:50:00,
2013-01-09 23:00:00,36.4,29.9,29.93,NW,315,3.0,3.0,77,0.00,,,0.01,Wunderground v.1.15,2013-01-10 04:00:00,
2013-01-09 23:05:00,36.2,29.7,29.93,NW,315,3.0,3.0,77,0.00,,,0.01,Wunderground v.1.15,2013-01-10 04:05:00,
2013-01-09 23:10:00,36.1,29.6,29.93,WNW,299,3.0,3.0,77,0.00,,,0.01,Wunderground v.1.15,2013-01-10 04:10:00,
2013-01-09 23:15:00,35.9,29.7,29.93,NW,320,3.0,3.0,78,0.00,,,0.01,Wunderground v.1.15,2013-01-10 04:15:00,
2013-01-09 23:20:00,35.9,29.7,29.93,West,275,3.0,3.0,78,0.00,,,0.01,Wunderground v.1.15,2013-01-10 04:20:00,
2013-01-09 23:25:00,35.9,29.7,29.94,WNW,283,3.0,3.0,78,0.00,,,0.01,Wunderground v.1.15,2013-01-10 04:25:00,
2013-01-09 23:35:00,35.7,29.5,29.94,West,272,2.0,5.0,78,0.00,,,0.01,Wunderground v.1.15,2013-01-10 04:35:00,
2013-01-09 23:40:00,35.7,29.5,29.94,WNW,293,2.0,2.0,78,0.00,,,0.01,Wunderground v.1.15,2013-01-10 04:40:00,
2013-01-09 23:45:00,35.9,29.7,29.94,WNW,285,2.0,4.0,78,0.00,,,0.01,Wunderground v.1.15,2013-01-10 04:45:00,
2013-01-09 23:50:00,36.0,29.8,29.94,WNW,296,3.0,3.0,78,0.00,,,0.01,Wunderground v.1.15,2013-01-10 04:50:00,
2013-01-09 23:55:00,36.1,29.9,29.94,WNW,303,3.0,3.0,78,0.00,,,0.01,Wunderground v.1.15,2013-01-10 04:55:00,